sensor_id;sensor_type;location;lat;lon;timestamp;P1;durP1;ratioP1;P2;durP2;ratioP2
41739;SDS011;27422;52.444;13.300;2023-08-07T00:01:06;8.98;;;3.53;;
41739;SDS011;27422;52.444;13.300;2023-08-07T00:03:34;5.75;;;2.90;;
41739;SDS011;27422;52.444;13.300;2023-08-07T00:06:00;5.90;;;3.15;;
41739;SDS011;27422;52.444;13.300;2023-08-07T00:08:26;7.15;;;3.20;;
41739;SDS011;27422;52.444;13.300;2023-08-07T00:10:51;4.93;;;3.42;;
41739;SDS011;27422;52.444;13.300;2023-08-07T00:13:17;5.22;;;3.13;;
41739;SDS011;27422;52.444;13.300;2023-08-07T00:15:42;4.57;;;2.95;;
41739;SDS011;27422;52.444;13.300;2023-08-07T00:18:07;5.50;;;3.22;;
41739;SDS011;27422;52.444;13.300;2023-08-07T00:20:33;9.93;;;4.20;;
41739;SDS011;27422;52.444;13.300;2023-08-07T00:22:58;5.70;;;3.03;;
41739;SDS011;27422;52.444;13.300;2023-08-07T00:25:24;5.05;;;3.25;;
41739;SDS011;27422;52.444;13.300;2023-08-07T00:27:49;6.07;;;3.50;;
41739;SDS011;27422;52.444;13.300;2023-08-07T00:30:15;5.78;;;3.38;;
41739;SDS011;27422;52.444;13.300;2023-08-07T00:32:40;6.15;;;3.40;;
41739;SDS011;27422;52.444;13.300;2023-08-07T00:35:06;7.97;;;3.60;;
41739;SDS011;27422;52.444;13.300;2023-08-07T00:37:33;5.57;;;3.92;;
41739;SDS011;27422;52.444;13.300;2023-08-07T00:39:59;8.35;;;4.03;;
41739;SDS011;27422;52.444;13.300;2023-08-07T00:42:24;6.78;;;4.38;;
41739;SDS011;27422;52.444;13.300;2023-08-07T00:44:50;9.45;;;4.47;;
41739;SDS011;27422;52.444;13.300;2023-08-07T00:47:15;7.10;;;4.22;;
41739;SDS011;27422;52.444;13.300;2023-08-07T00:49:41;9.50;;;5.03;;
41739;SDS011;27422;52.444;13.300;2023-08-07T00:52:07;10.05;;;4.50;;
41739;SDS011;27422;52.444;13.300;2023-08-07T00:54:32;8.10;;;4.60;;
41739;SDS011;27422;52.444;13.300;2023-08-07T00:56:59;7.35;;;4.18;;
41739;SDS011;27422;52.444;13.300;2023-08-07T00:59:34;8.82;;;4.10;;
41739;SDS011;27422;52.444;13.300;2023-08-07T01:02:00;6.88;;;4.30;;
41739;SDS011;27422;52.444;13.300;2023-08-07T01:04:27;9.43;;;4.05;;
41739;SDS011;27422;52.444;13.300;2023-08-07T01:06:53;6.10;;;3.75;;
41739;SDS011;27422;52.444;13.300;2023-08-07T01:09:19;8.95;;;4.32;;
41739;SDS011;27422;52.444;13.300;2023-08-07T01:17:16;6.72;;;4.03;;
41739;SDS011;27422;52.444;13.300;2023-08-07T01:19:44;6.93;;;3.85;;
41739;SDS011;27422;52.444;13.300;2023-08-07T01:24:43;7.10;;;3.92;;
41739;SDS011;27422;52.444;13.300;2023-08-07T01:35:14;7.35;;;3.92;;
41739;SDS011;27422;52.444;13.300;2023-08-07T01:37:41;6.68;;;4.25;;
41739;SDS011;27422;52.444;13.300;2023-08-07T01:40:08;8.70;;;5.03;;
41739;SDS011;27422;52.444;13.300;2023-08-07T01:42:35;8.23;;;5.70;;
41739;SDS011;27422;52.444;13.300;2023-08-07T01:45:01;9.68;;;6.35;;
41739;SDS011;27422;52.444;13.300;2023-08-07T01:47:30;10.65;;;8.20;;
41739;SDS011;27422;52.444;13.300;2023-08-07T01:49:56;15.13;;;9.38;;
41739;SDS011;27422;52.444;13.300;2023-08-07T01:52:23;15.15;;;10.57;;
41739;SDS011;27422;52.444;13.300;2023-08-07T01:54:49;17.42;;;11.57;;
41739;SDS011;27422;52.444;13.300;2023-08-07T01:57:15;14.88;;;11.13;;
41739;SDS011;27422;52.444;13.300;2023-08-07T01:59:40;14.40;;;10.35;;
41739;SDS011;27422;52.444;13.300;2023-08-07T02:02:06;12.38;;;9.15;;
41739;SDS011;27422;52.444;13.300;2023-08-07T02:04:31;11.30;;;7.85;;
41739;SDS011;27422;52.444;13.300;2023-08-07T02:06:56;10.95;;;6.90;;
41739;SDS011;27422;52.444;13.300;2023-08-07T02:09:27;7.57;;;5.78;;
41739;SDS011;27422;52.444;13.300;2023-08-07T02:11:53;10.25;;;5.43;;
41739;SDS011;27422;52.444;13.300;2023-08-07T02:14:18;7.53;;;4.70;;
41739;SDS011;27422;52.444;13.300;2023-08-07T02:16:44;8.50;;;4.57;;
41739;SDS011;27422;52.444;13.300;2023-08-07T02:19:09;8.05;;;4.53;;
41739;SDS011;27422;52.444;13.300;2023-08-07T02:21:35;10.27;;;4.85;;
41739;SDS011;27422;52.444;13.300;2023-08-07T02:24:00;6.72;;;4.38;;
41739;SDS011;27422;52.444;13.300;2023-08-07T02:26:25;8.65;;;4.53;;
41739;SDS011;27422;52.444;13.300;2023-08-07T02:28:51;11.93;;;5.00;;
41739;SDS011;27422;52.444;13.300;2023-08-07T02:31:16;9.05;;;4.72;;
41739;SDS011;27422;52.444;13.300;2023-08-07T02:33:41;11.63;;;5.55;;
41739;SDS011;27422;52.444;13.300;2023-08-07T02:36:07;10.50;;;5.25;;
41739;SDS011;27422;52.444;13.300;2023-08-07T02:38:38;7.75;;;5.15;;
41739;SDS011;27422;52.444;13.300;2023-08-07T02:41:04;8.68;;;5.13;;
41739;SDS011;27422;52.444;13.300;2023-08-07T02:43:32;9.15;;;5.30;;
41739;SDS011;27422;52.444;13.300;2023-08-07T02:45:59;8.43;;;5.47;;
41739;SDS011;27422;52.444;13.300;2023-08-07T02:48:24;8.93;;;4.95;;
41739;SDS011;27422;52.444;13.300;2023-08-07T02:50:50;8.57;;;5.03;;
41739;SDS011;27422;52.444;13.300;2023-08-07T02:53:16;9.65;;;5.82;;
41739;SDS011;27422;52.444;13.300;2023-08-07T02:55:43;10.80;;;5.63;;
41739;SDS011;27422;52.444;13.300;2023-08-07T02:58:08;10.63;;;5.95;;
41739;SDS011;27422;52.444;13.300;2023-08-07T03:00:34;11.82;;;6.10;;
41739;SDS011;27422;52.444;13.300;2023-08-07T03:03:00;12.35;;;6.38;;
41739;SDS011;27422;52.444;13.300;2023-08-07T03:05:25;10.73;;;6.65;;
41739;SDS011;27422;52.444;13.300;2023-08-07T03:07:51;9.73;;;6.80;;
41739;SDS011;27422;52.444;13.300;2023-08-07T03:10:16;12.70;;;6.80;;
41739;SDS011;27422;52.444;13.300;2023-08-07T03:12:41;11.45;;;7.13;;
41739;SDS011;27422;52.444;13.300;2023-08-07T03:15:07;11.55;;;7.60;;
41739;SDS011;27422;52.444;13.300;2023-08-07T03:17:33;11.38;;;7.43;;
41739;SDS011;27422;52.444;13.300;2023-08-07T03:19:58;15.18;;;7.97;;
41739;SDS011;27422;52.444;13.300;2023-08-07T03:22:33;15.70;;;8.18;;
41739;SDS011;27422;52.444;13.300;2023-08-07T03:24:58;15.75;;;8.65;;
41739;SDS011;27422;52.444;13.300;2023-08-07T03:27:23;12.82;;;8.15;;
41739;SDS011;27422;52.444;13.300;2023-08-07T03:29:52;13.35;;;8.55;;
41739;SDS011;27422;52.444;13.300;2023-08-07T03:32:20;14.57;;;7.53;;
41739;SDS011;27422;52.444;13.300;2023-08-07T03:34:45;14.50;;;8.27;;
41739;SDS011;27422;52.444;13.300;2023-08-07T03:37:11;10.40;;;7.80;;
41739;SDS011;27422;52.444;13.300;2023-08-07T03:39:36;14.13;;;7.50;;
41739;SDS011;27422;52.444;13.300;2023-08-07T03:42:02;12.07;;;7.28;;
41739;SDS011;27422;52.444;13.300;2023-08-07T03:44:27;12.05;;;6.88;;
41739;SDS011;27422;52.444;13.300;2023-08-07T03:46:53;10.07;;;6.18;;
41739;SDS011;27422;52.444;13.300;2023-08-07T03:49:26;15.82;;;7.25;;
41739;SDS011;27422;52.444;13.300;2023-08-07T03:51:51;11.27;;;6.43;;
41739;SDS011;27422;52.444;13.300;2023-08-07T03:54:16;10.00;;;6.13;;
41739;SDS011;27422;52.444;13.300;2023-08-07T03:56:42;11.65;;;5.93;;
41739;SDS011;27422;52.444;13.300;2023-08-07T03:59:07;10.25;;;6.38;;
41739;SDS011;27422;52.444;13.300;2023-08-07T04:01:35;9.73;;;6.30;;
41739;SDS011;27422;52.444;13.300;2023-08-07T04:04:00;8.77;;;6.05;;
41739;SDS011;27422;52.444;13.300;2023-08-07T04:06:26;9.18;;;6.25;;
41739;SDS011;27422;52.444;13.300;2023-08-07T04:08:52;7.93;;;5.40;;
41739;SDS011;27422;52.444;13.300;2023-08-07T04:11:17;8.80;;;6.00;;
41739;SDS011;27422;52.444;13.300;2023-08-07T04:13:42;10.45;;;5.40;;
41739;SDS011;27422;52.444;13.300;2023-08-07T04:16:08;8.55;;;5.38;;
41739;SDS011;27422;52.444;13.300;2023-08-07T04:18:36;8.70;;;5.30;;
41739;SDS011;27422;52.444;13.300;2023-08-07T04:21:01;8.63;;;5.40;;
41739;SDS011;27422;52.444;13.300;2023-08-07T04:23:27;8.02;;;4.90;;
41739;SDS011;27422;52.444;13.300;2023-08-07T04:25:53;8.48;;;5.43;;
41739;SDS011;27422;52.444;13.300;2023-08-07T04:28:19;10.57;;;5.20;;
41739;SDS011;27422;52.444;13.300;2023-08-07T04:30:44;8.00;;;4.90;;
41739;SDS011;27422;52.444;13.300;2023-08-07T04:33:10;12.52;;;4.78;;
41739;SDS011;27422;52.444;13.300;2023-08-07T04:35:36;8.70;;;4.90;;
41739;SDS011;27422;52.444;13.300;2023-08-07T04:38:02;8.23;;;4.70;;
41739;SDS011;27422;52.444;13.300;2023-08-07T04:40:27;7.90;;;4.25;;
41739;SDS011;27422;52.444;13.300;2023-08-07T04:42:53;8.35;;;4.78;;
41739;SDS011;27422;52.444;13.300;2023-08-07T04:45:20;9.25;;;4.07;;
41739;SDS011;27422;52.444;13.300;2023-08-07T04:47:46;7.60;;;4.30;;
41739;SDS011;27422;52.444;13.300;2023-08-07T04:50:11;8.25;;;4.30;;
41739;SDS011;27422;52.444;13.300;2023-08-07T04:52:36;9.00;;;3.88;;
41739;SDS011;27422;52.444;13.300;2023-08-07T04:55:02;7.10;;;3.80;;
41739;SDS011;27422;52.444;13.300;2023-08-07T04:57:27;7.15;;;3.78;;
41739;SDS011;27422;52.444;13.300;2023-08-07T04:59:53;8.25;;;3.90;;
41739;SDS011;27422;52.444;13.300;2023-08-07T05:02:18;6.60;;;3.95;;
41739;SDS011;27422;52.444;13.300;2023-08-07T05:04:44;8.30;;;3.70;;
41739;SDS011;27422;52.444;13.300;2023-08-07T05:07:09;5.80;;;3.17;;
41739;SDS011;27422;52.444;13.300;2023-08-07T05:09:35;6.95;;;3.40;;
41739;SDS011;27422;52.444;13.300;2023-08-07T05:12:01;7.20;;;3.55;;
41739;SDS011;27422;52.444;13.300;2023-08-07T05:14:26;6.82;;;3.60;;
41739;SDS011;27422;52.444;13.300;2023-08-07T05:16:52;7.53;;;3.40;;
41739;SDS011;27422;52.444;13.300;2023-08-07T05:19:17;7.00;;;3.28;;
41739;SDS011;27422;52.444;13.300;2023-08-07T05:21:43;9.02;;;3.80;;
41739;SDS011;27422;52.444;13.300;2023-08-07T05:24:14;5.07;;;3.28;;
41739;SDS011;27422;52.444;13.300;2023-08-07T05:26:40;6.93;;;3.38;;
41739;SDS011;27422;52.444;13.300;2023-08-07T05:29:08;7.50;;;3.25;;
41739;SDS011;27422;52.444;13.300;2023-08-07T05:31:34;6.43;;;3.28;;
41739;SDS011;27422;52.444;13.300;2023-08-07T05:33:59;9.45;;;3.90;;
41739;SDS011;27422;52.444;13.300;2023-08-07T05:36:27;6.20;;;3.35;;
41739;SDS011;27422;52.444;13.300;2023-08-07T05:38:57;8.13;;;3.42;;
41739;SDS011;27422;52.444;13.300;2023-08-07T05:41:23;9.35;;;3.45;;
41739;SDS011;27422;52.444;13.300;2023-08-07T05:43:48;6.50;;;3.30;;
41739;SDS011;27422;52.444;13.300;2023-08-07T05:46:14;8.52;;;3.30;;
41739;SDS011;27422;52.444;13.300;2023-08-07T05:48:39;7.35;;;3.58;;
41739;SDS011;27422;52.444;13.300;2023-08-07T05:51:05;6.25;;;3.17;;
41739;SDS011;27422;52.444;13.300;2023-08-07T05:53:32;7.43;;;3.37;;
41739;SDS011;27422;52.444;13.300;2023-08-07T05:55:57;5.63;;;2.80;;
41739;SDS011;27422;52.444;13.300;2023-08-07T05:58:23;5.93;;;2.80;;
41739;SDS011;27422;52.444;13.300;2023-08-07T06:00:48;6.63;;;3.30;;
41739;SDS011;27422;52.444;13.300;2023-08-07T06:03:13;6.50;;;3.20;;
41739;SDS011;27422;52.444;13.300;2023-08-07T06:05:39;5.53;;;2.72;;
41739;SDS011;27422;52.444;13.300;2023-08-07T06:08:05;6.05;;;2.95;;
41739;SDS011;27422;52.444;13.300;2023-08-07T06:10:30;6.43;;;2.83;;
41739;SDS011;27422;52.444;13.300;2023-08-07T06:12:56;5.60;;;2.65;;
41739;SDS011;27422;52.444;13.300;2023-08-07T06:15:21;7.00;;;2.90;;
41739;SDS011;27422;52.444;13.300;2023-08-07T06:17:47;5.80;;;2.70;;
41739;SDS011;27422;52.444;13.300;2023-08-07T06:20:12;4.75;;;2.65;;
41739;SDS011;27422;52.444;13.300;2023-08-07T06:22:39;5.20;;;2.23;;
41739;SDS011;27422;52.444;13.300;2023-08-07T06:25:05;5.00;;;2.15;;
41739;SDS011;27422;52.444;13.300;2023-08-07T06:27:31;5.45;;;2.40;;
41739;SDS011;27422;52.444;13.300;2023-08-07T06:30:04;3.97;;;2.30;;
41739;SDS011;27422;52.444;13.300;2023-08-07T06:32:39;5.40;;;2.17;;
41739;SDS011;27422;52.444;13.300;2023-08-07T06:35:05;4.93;;;2.15;;
41739;SDS011;27422;52.444;13.300;2023-08-07T06:37:34;6.60;;;2.17;;
41739;SDS011;27422;52.444;13.300;2023-08-07T06:39:59;6.80;;;2.17;;
41739;SDS011;27422;52.444;13.300;2023-08-07T06:42:26;6.00;;;1.92;;
41739;SDS011;27422;52.444;13.300;2023-08-07T06:44:54;4.68;;;2.05;;
41739;SDS011;27422;52.444;13.300;2023-08-07T06:47:20;2.95;;;1.80;;
41739;SDS011;27422;52.444;13.300;2023-08-07T06:49:45;5.40;;;2.10;;
41739;SDS011;27422;52.444;13.300;2023-08-07T06:52:11;6.75;;;1.92;;
41739;SDS011;27422;52.444;13.300;2023-08-07T06:54:36;4.70;;;1.77;;
41739;SDS011;27422;52.444;13.300;2023-08-07T06:57:01;4.18;;;1.90;;
41739;SDS011;27422;52.444;13.300;2023-08-07T06:59:27;4.68;;;1.83;;
41739;SDS011;27422;52.444;13.300;2023-08-07T07:01:52;5.88;;;2.05;;
41739;SDS011;27422;52.444;13.300;2023-08-07T07:04:18;4.90;;;1.60;;
41739;SDS011;27422;52.444;13.300;2023-08-07T07:06:43;6.78;;;1.85;;
41739;SDS011;27422;52.444;13.300;2023-08-07T07:09:09;6.18;;;1.98;;
41739;SDS011;27422;52.444;13.300;2023-08-07T07:11:34;3.33;;;1.50;;
41739;SDS011;27422;52.444;13.300;2023-08-07T07:13:59;4.80;;;1.73;;
41739;SDS011;27422;52.444;13.300;2023-08-07T07:16:25;4.88;;;1.70;;
41739;SDS011;27422;52.444;13.300;2023-08-07T07:18:50;4.43;;;1.60;;
41739;SDS011;27422;52.444;13.300;2023-08-07T07:21:16;4.70;;;1.73;;
41739;SDS011;27422;52.444;13.300;2023-08-07T07:23:42;3.65;;;1.65;;
41739;SDS011;27422;52.444;13.300;2023-08-07T07:26:07;8.32;;;1.65;;
41739;SDS011;27422;52.444;13.300;2023-08-07T07:28:33;6.07;;;1.60;;
41739;SDS011;27422;52.444;13.300;2023-08-07T07:30:58;3.55;;;1.40;;
41739;SDS011;27422;52.444;13.300;2023-08-07T07:33:23;4.30;;;1.50;;
41739;SDS011;27422;52.444;13.300;2023-08-07T07:35:49;4.40;;;1.40;;
41739;SDS011;27422;52.444;13.300;2023-08-07T07:38:14;2.85;;;1.27;;
41739;SDS011;27422;52.444;13.300;2023-08-07T07:41:00;3.55;;;1.45;;
41739;SDS011;27422;52.444;13.300;2023-08-07T07:43:28;5.03;;;1.45;;
41739;SDS011;27422;52.444;13.300;2023-08-07T07:45:54;6.55;;;1.60;;
41739;SDS011;27422;52.444;13.300;2023-08-07T07:48:20;4.50;;;1.50;;
41739;SDS011;27422;52.444;13.300;2023-08-07T07:50:45;5.50;;;1.50;;
41739;SDS011;27422;52.444;13.300;2023-08-07T07:53:11;4.32;;;1.30;;
41739;SDS011;27422;52.444;13.300;2023-08-07T07:55:36;3.70;;;1.35;;
41739;SDS011;27422;52.444;13.300;2023-08-07T07:58:03;7.20;;;1.45;;
41739;SDS011;27422;52.444;13.300;2023-08-07T08:00:28;4.18;;;1.73;;
41739;SDS011;27422;52.444;13.300;2023-08-07T08:02:53;3.75;;;1.40;;
41739;SDS011;27422;52.444;13.300;2023-08-07T08:05:19;3.80;;;1.60;;
41739;SDS011;27422;52.444;13.300;2023-08-07T08:07:44;4.78;;;1.40;;
41739;SDS011;27422;52.444;13.300;2023-08-07T08:10:10;3.92;;;1.48;;
41739;SDS011;27422;52.444;13.300;2023-08-07T08:12:36;6.22;;;1.60;;
41739;SDS011;27422;52.444;13.300;2023-08-07T08:15:02;4.47;;;1.50;;
41739;SDS011;27422;52.444;13.300;2023-08-07T08:17:28;2.92;;;1.48;;
41739;SDS011;27422;52.444;13.300;2023-08-07T08:19:53;5.30;;;2.00;;
41739;SDS011;27422;52.444;13.300;2023-08-07T08:22:19;4.00;;;1.92;;
41739;SDS011;27422;52.444;13.300;2023-08-07T08:24:44;3.75;;;1.70;;
41739;SDS011;27422;52.444;13.300;2023-08-07T08:27:10;3.25;;;1.52;;
41739;SDS011;27422;52.444;13.300;2023-08-07T08:29:35;5.13;;;1.70;;
41739;SDS011;27422;52.444;13.300;2023-08-07T08:32:00;3.55;;;1.63;;
41739;SDS011;27422;52.444;13.300;2023-08-07T08:34:26;5.03;;;1.80;;
41739;SDS011;27422;52.444;13.300;2023-08-07T08:36:52;4.03;;;1.52;;
41739;SDS011;27422;52.444;13.300;2023-08-07T08:39:20;3.25;;;1.48;;
41739;SDS011;27422;52.444;13.300;2023-08-07T08:41:47;4.47;;;1.77;;
41739;SDS011;27422;52.444;13.300;2023-08-07T08:44:13;3.55;;;1.75;;
41739;SDS011;27422;52.444;13.300;2023-08-07T08:46:41;4.05;;;1.63;;
41739;SDS011;27422;52.444;13.300;2023-08-07T08:49:07;5.07;;;1.50;;
41739;SDS011;27422;52.444;13.300;2023-08-07T08:51:34;4.90;;;1.50;;
41739;SDS011;27422;52.444;13.300;2023-08-07T08:54:01;5.05;;;1.67;;
41739;SDS011;27422;52.444;13.300;2023-08-07T08:56:28;3.20;;;1.70;;
41739;SDS011;27422;52.444;13.300;2023-08-07T08:58:54;5.75;;;1.60;;
41739;SDS011;27422;52.444;13.300;2023-08-07T09:01:20;3.75;;;1.63;;
41739;SDS011;27422;52.444;13.300;2023-08-07T09:03:46;5.45;;;1.50;;
41739;SDS011;27422;52.444;13.300;2023-08-07T09:06:12;4.13;;;1.73;;
41739;SDS011;27422;52.444;13.300;2023-08-07T09:08:40;5.15;;;1.60;;
41739;SDS011;27422;52.444;13.300;2023-08-07T09:11:12;3.33;;;1.77;;
41739;SDS011;27422;52.444;13.300;2023-08-07T09:13:39;8.70;;;2.33;;
41739;SDS011;27422;52.444;13.300;2023-08-07T09:16:06;5.65;;;2.28;;
41739;SDS011;27422;52.444;13.300;2023-08-07T09:18:33;6.93;;;2.55;;
41739;SDS011;27422;52.444;13.300;2023-08-07T09:20:59;5.22;;;2.50;;
41739;SDS011;27422;52.444;13.300;2023-08-07T09:23:25;3.97;;;2.42;;
41739;SDS011;27422;52.444;13.300;2023-08-07T09:26:00;4.90;;;2.40;;
41739;SDS011;27422;52.444;13.300;2023-08-07T09:28:29;6.80;;;2.47;;
41739;SDS011;27422;52.444;13.300;2023-08-07T09:30:55;7.78;;;2.90;;
41739;SDS011;27422;52.444;13.300;2023-08-07T09:33:27;3.83;;;2.00;;
41739;SDS011;27422;52.444;13.300;2023-08-07T09:36:01;4.93;;;2.08;;
41739;SDS011;27422;52.444;13.300;2023-08-07T09:38:28;5.60;;;1.85;;
41739;SDS011;27422;52.444;13.300;2023-08-07T09:41:02;3.33;;;1.50;;
41739;SDS011;27422;52.444;13.300;2023-08-07T09:43:34;5.70;;;2.17;;
41739;SDS011;27422;52.444;13.300;2023-08-07T09:46:03;6.15;;;1.83;;
41739;SDS011;27422;52.444;13.300;2023-08-07T09:48:31;4.70;;;1.70;;
41739;SDS011;27422;52.444;13.300;2023-08-07T09:51:02;5.68;;;1.60;;
41739;SDS011;27422;52.444;13.300;2023-08-07T09:53:30;5.03;;;1.50;;
41739;SDS011;27422;52.444;13.300;2023-08-07T09:55:56;4.40;;;1.40;;
41739;SDS011;27422;52.444;13.300;2023-08-07T09:58:22;3.08;;;1.20;;
41739;SDS011;27422;52.444;13.300;2023-08-07T10:00:48;3.72;;;1.45;;
41739;SDS011;27422;52.444;13.300;2023-08-07T10:03:34;5.82;;;1.70;;
41739;SDS011;27422;52.444;13.300;2023-08-07T10:06:00;2.97;;;1.20;;
41739;SDS011;27422;52.444;13.300;2023-08-07T10:08:25;4.82;;;1.30;;
41739;SDS011;27422;52.444;13.300;2023-08-07T10:10:51;4.57;;;1.20;;
41739;SDS011;27422;52.444;13.300;2023-08-07T10:13:17;4.88;;;1.33;;
41739;SDS011;27422;52.444;13.300;2023-08-07T10:15:42;5.47;;;1.00;;
41739;SDS011;27422;52.444;13.300;2023-08-07T10:18:08;4.32;;;1.15;;
41739;SDS011;27422;52.444;13.300;2023-08-07T10:20:34;3.95;;;1.00;;
41739;SDS011;27422;52.444;13.300;2023-08-07T10:23:06;3.22;;;0.90;;
41739;SDS011;27422;52.444;13.300;2023-08-07T10:25:32;3.38;;;1.30;;
41739;SDS011;27422;52.444;13.300;2023-08-07T10:28:00;3.88;;;1.08;;
41739;SDS011;27422;52.444;13.300;2023-08-07T10:30:26;3.90;;;1.20;;
41739;SDS011;27422;52.444;13.300;2023-08-07T10:32:52;4.45;;;1.38;;
41739;SDS011;27422;52.444;13.300;2023-08-07T10:35:25;4.60;;;1.25;;
41739;SDS011;27422;52.444;13.300;2023-08-07T10:38:07;3.95;;;1.20;;
41739;SDS011;27422;52.444;13.300;2023-08-07T10:40:34;2.95;;;1.10;;
41739;SDS011;27422;52.444;13.300;2023-08-07T10:43:18;3.63;;;1.10;;
41739;SDS011;27422;52.444;13.300;2023-08-07T10:45:43;3.60;;;1.20;;
41739;SDS011;27422;52.444;13.300;2023-08-07T10:48:18;3.95;;;1.27;;
41739;SDS011;27422;52.444;13.300;2023-08-07T10:50:51;3.75;;;0.98;;
41739;SDS011;27422;52.444;13.300;2023-08-07T10:53:31;3.28;;;1.25;;
41739;SDS011;27422;52.444;13.300;2023-08-07T10:55:58;3.28;;;0.90;;
41739;SDS011;27422;52.444;13.300;2023-08-07T10:58:33;3.10;;;1.10;;
41739;SDS011;27422;52.444;13.300;2023-08-07T11:01:27;3.30;;;1.20;;
41739;SDS011;27422;52.444;13.300;2023-08-07T11:04:05;3.22;;;1.08;;
41739;SDS011;27422;52.444;13.300;2023-08-07T11:06:41;3.60;;;1.20;;
41739;SDS011;27422;52.444;13.300;2023-08-07T11:09:09;3.08;;;1.17;;
41739;SDS011;27422;52.444;13.300;2023-08-07T11:11:53;4.90;;;1.65;;
41739;SDS011;27422;52.444;13.300;2023-08-07T11:14:19;3.22;;;0.95;;
41739;SDS011;27422;52.444;13.300;2023-08-07T11:16:45;4.50;;;1.27;;
41739;SDS011;27422;52.444;13.300;2023-08-07T11:19:11;2.22;;;1.00;;
41739;SDS011;27422;52.444;13.300;2023-08-07T11:21:45;3.70;;;1.33;;
41739;SDS011;27422;52.444;13.300;2023-08-07T11:24:12;2.55;;;0.90;;
41739;SDS011;27422;52.444;13.300;2023-08-07T11:29:03;3.13;;;1.00;;
41739;SDS011;27422;52.444;13.300;2023-08-07T11:31:29;3.15;;;0.90;;
41739;SDS011;27422;52.444;13.300;2023-08-07T11:33:55;2.88;;;1.17;;
41739;SDS011;27422;52.444;13.300;2023-08-07T11:36:22;2.88;;;0.98;;
41739;SDS011;27422;52.444;13.300;2023-08-07T11:38:48;3.97;;;1.15;;
41739;SDS011;27422;52.444;13.300;2023-08-07T11:41:14;2.10;;;0.95;;
41739;SDS011;27422;52.444;13.300;2023-08-07T11:43:41;4.63;;;1.10;;
41739;SDS011;27422;52.444;13.300;2023-08-07T11:46:08;2.70;;;1.00;;
41739;SDS011;27422;52.444;13.300;2023-08-07T11:48:36;3.20;;;0.98;;
41739;SDS011;27422;52.444;13.300;2023-08-07T11:51:02;5.35;;;1.17;;
41739;SDS011;27422;52.444;13.300;2023-08-07T11:53:30;3.55;;;1.05;;
41739;SDS011;27422;52.444;13.300;2023-08-07T11:56:00;2.22;;;0.90;;
41739;SDS011;27422;52.444;13.300;2023-08-07T11:58:42;3.72;;;1.13;;
41739;SDS011;27422;52.444;13.300;2023-08-07T12:01:13;4.95;;;1.10;;
41739;SDS011;27422;52.444;13.300;2023-08-07T12:03:50;2.70;;;1.10;;
41739;SDS011;27422;52.444;13.300;2023-08-07T12:06:19;4.43;;;1.08;;
41739;SDS011;27422;52.444;13.300;2023-08-07T12:08:45;7.07;;;1.20;;
41739;SDS011;27422;52.444;13.300;2023-08-07T12:11:11;3.22;;;1.17;;
41739;SDS011;27422;52.444;13.300;2023-08-07T12:13:38;3.53;;;1.10;;
41739;SDS011;27422;52.444;13.300;2023-08-07T12:16:04;3.83;;;1.10;;
41739;SDS011;27422;52.444;13.300;2023-08-07T12:18:30;4.97;;;1.10;;
41739;SDS011;27422;52.444;13.300;2023-08-07T12:21:02;3.35;;;0.95;;
41739;SDS011;27422;52.444;13.300;2023-08-07T12:23:34;3.90;;;1.00;;
41739;SDS011;27422;52.444;13.300;2023-08-07T12:26:01;3.28;;;0.90;;
41739;SDS011;27422;52.444;13.300;2023-08-07T12:28:27;3.15;;;0.90;;
41739;SDS011;27422;52.444;13.300;2023-08-07T12:30:52;3.30;;;1.00;;
41739;SDS011;27422;52.444;13.300;2023-08-07T12:33:18;2.85;;;0.95;;
41739;SDS011;27422;52.444;13.300;2023-08-07T12:35:44;5.53;;;0.93;;
41739;SDS011;27422;52.444;13.300;2023-08-07T12:38:09;5.75;;;1.20;;
41739;SDS011;27422;52.444;13.300;2023-08-07T12:40:36;3.83;;;1.00;;
41739;SDS011;27422;52.444;13.300;2023-08-07T12:43:02;3.92;;;0.90;;
41739;SDS011;27422;52.444;13.300;2023-08-07T12:45:28;3.63;;;0.90;;
41739;SDS011;27422;52.444;13.300;2023-08-07T12:47:54;3.60;;;0.90;;
41739;SDS011;27422;52.444;13.300;2023-08-07T12:50:19;3.53;;;1.08;;
41739;SDS011;27422;52.444;13.300;2023-08-07T12:52:44;4.10;;;1.13;;
41739;SDS011;27422;52.444;13.300;2023-08-07T12:55:10;5.25;;;1.00;;
41739;SDS011;27422;52.444;13.300;2023-08-07T12:57:37;3.17;;;0.90;;
41739;SDS011;27422;52.444;13.300;2023-08-07T13:00:03;7.20;;;1.35;;
41739;SDS011;27422;52.444;13.300;2023-08-07T13:02:29;5.03;;;1.30;;
41739;SDS011;27422;52.444;13.300;2023-08-07T13:04:55;10.48;;;1.88;;
41739;SDS011;27422;52.444;13.300;2023-08-07T13:07:22;6.50;;;1.63;;
41739;SDS011;27422;52.444;13.300;2023-08-07T13:09:47;7.50;;;2.20;;
41739;SDS011;27422;52.444;13.300;2023-08-07T13:12:13;8.38;;;1.80;;
41739;SDS011;27422;52.444;13.300;2023-08-07T13:14:38;5.13;;;1.80;;
41739;SDS011;27422;52.444;13.300;2023-08-07T13:17:03;6.72;;;1.85;;
41739;SDS011;27422;52.444;13.300;2023-08-07T13:19:29;5.63;;;1.55;;
41739;SDS011;27422;52.444;13.300;2023-08-07T13:21:55;6.32;;;1.75;;
41739;SDS011;27422;52.444;13.300;2023-08-07T13:24:20;6.03;;;1.70;;
41739;SDS011;27422;52.444;13.300;2023-08-07T13:26:45;7.38;;;2.28;;
41739;SDS011;27422;52.444;13.300;2023-08-07T13:29:11;6.85;;;2.33;;
41739;SDS011;27422;52.444;13.300;2023-08-07T13:31:37;6.38;;;1.73;;
41739;SDS011;27422;52.444;13.300;2023-08-07T13:34:02;6.20;;;1.90;;
41739;SDS011;27422;52.444;13.300;2023-08-07T13:36:32;7.18;;;2.10;;
41739;SDS011;27422;52.444;13.300;2023-08-07T13:39:01;9.20;;;2.00;;
41739;SDS011;27422;52.444;13.300;2023-08-07T13:41:27;5.38;;;1.60;;
41739;SDS011;27422;52.444;13.300;2023-08-07T13:43:52;8.77;;;1.88;;
41739;SDS011;27422;52.444;13.300;2023-08-07T13:46:17;10.30;;;1.90;;
41739;SDS011;27422;52.444;13.300;2023-08-07T13:48:44;6.53;;;1.73;;
41739;SDS011;27422;52.444;13.300;2023-08-07T13:51:13;6.65;;;1.67;;
41739;SDS011;27422;52.444;13.300;2023-08-07T13:53:39;11.20;;;1.75;;
41739;SDS011;27422;52.444;13.300;2023-08-07T13:56:04;5.97;;;1.70;;
41739;SDS011;27422;52.444;13.300;2023-08-07T13:58:29;3.67;;;1.15;;
41739;SDS011;27422;52.444;13.300;2023-08-07T14:00:57;5.53;;;1.35;;
41739;SDS011;27422;52.444;13.300;2023-08-07T14:03:23;6.50;;;1.65;;
41739;SDS011;27422;52.444;13.300;2023-08-07T14:05:49;4.05;;;1.05;;
41739;SDS011;27422;52.444;13.300;2023-08-07T14:08:15;7.50;;;1.50;;
41739;SDS011;27422;52.444;13.300;2023-08-07T14:10:41;5.28;;;1.27;;
41739;SDS011;27422;52.444;13.300;2023-08-07T14:13:06;4.32;;;1.20;;
41739;SDS011;27422;52.444;13.300;2023-08-07T14:15:32;5.43;;;1.33;;
41739;SDS011;27422;52.444;13.300;2023-08-07T14:17:58;4.00;;;1.13;;
41739;SDS011;27422;52.444;13.300;2023-08-07T14:20:23;7.05;;;1.20;;
41739;SDS011;27422;52.444;13.300;2023-08-07T14:22:58;7.53;;;1.80;;
41739;SDS011;27422;52.444;13.300;2023-08-07T14:25:24;5.75;;;1.20;;
41739;SDS011;27422;52.444;13.300;2023-08-07T14:27:49;7.30;;;1.40;;
41739;SDS011;27422;52.444;13.300;2023-08-07T14:30:15;6.07;;;1.33;;
41739;SDS011;27422;52.444;13.300;2023-08-07T14:32:40;4.40;;;1.33;;
41739;SDS011;27422;52.444;13.300;2023-08-07T14:35:07;6.53;;;1.50;;
41739;SDS011;27422;52.444;13.300;2023-08-07T14:37:39;8.38;;;1.83;;
41739;SDS011;27422;52.444;13.300;2023-08-07T14:40:05;6.70;;;1.50;;
41739;SDS011;27422;52.444;13.300;2023-08-07T14:42:31;6.35;;;1.58;;
41739;SDS011;27422;52.444;13.300;2023-08-07T14:44:57;7.97;;;1.70;;
41739;SDS011;27422;52.444;13.300;2023-08-07T14:47:23;5.63;;;1.40;;
41739;SDS011;27422;52.444;13.300;2023-08-07T14:49:48;5.72;;;1.50;;